createdAt,value
2023-03-02T00:02:22.334Z,6.30
2023-03-02T00:04:57.229Z,6.30
2023-03-02T00:07:30.344Z,6.21
2023-03-02T00:10:01.471Z,6.05
2023-03-02T00:12:34.107Z,5.67
2023-03-02T00:15:04.257Z,5.95
2023-03-02T00:17:32.731Z,6.02
2023-03-02T00:20:10.255Z,5.66
2023-03-02T00:22:39.536Z,5.69
2023-03-02T00:25:14.548Z,5.65
2023-03-02T00:27:46.248Z,5.61
2023-03-02T00:30:21.707Z,5.07
2023-03-02T00:32:49.849Z,5.80
2023-03-02T00:35:18.421Z,5.67
2023-03-02T00:37:47.125Z,5.68
2023-03-02T00:40:18.781Z,5.55
2023-03-02T00:42:51.120Z,5.62
2023-03-02T00:45:20.699Z,5.73
2023-03-02T00:47:49.078Z,5.83
2023-03-02T00:50:17.771Z,5.86
2023-03-02T00:52:45.888Z,5.77
2023-03-02T00:55:14.122Z,5.54
2023-03-02T00:57:44.525Z,5.57
2023-03-02T01:00:13.627Z,5.54
2023-03-02T01:02:44.565Z,5.50
2023-03-02T01:05:13.015Z,5.44
2023-03-02T01:07:41.556Z,5.56
2023-03-02T01:10:14.341Z,5.38
2023-03-02T01:12:42.892Z,5.38
2023-03-02T01:15:16.777Z,5.28
2023-03-02T01:17:47.114Z,5.07
2023-03-02T01:20:16.153Z,5.22
2023-03-02T01:22:44.714Z,5.16
2023-03-02T01:25:14.549Z,5.07
2023-03-02T01:27:42.835Z,5.26
2023-03-02T01:30:12.560Z,5.27
2023-03-02T01:32:43.351Z,5.31
2023-03-02T01:35:16.254Z,5.30
2023-03-02T01:37:44.463Z,5.18
2023-03-02T01:40:15.026Z,5.16
2023-03-02T01:42:49.526Z,5.15
2023-03-02T01:45:48.054Z,5.19
2023-03-02T01:48:22.182Z,5.09
2023-03-02T01:50:51.995Z,4.94
2023-03-02T01:53:22.524Z,5.22
2023-03-02T01:55:51.797Z,5.08
2023-03-02T01:58:20.819Z,4.97
2023-03-02T02:00:49.530Z,5.32
2023-03-02T02:03:22.308Z,5.13
2023-03-02T02:06:02.032Z,5.22
2023-03-02T02:08:30.565Z,4.68
2023-03-02T02:10:59.704Z,5.13
2023-03-02T02:13:28.352Z,5.40
2023-03-02T02:15:57.000Z,5.27
2023-03-02T02:18:26.063Z,5.16
2023-03-02T02:20:57.106Z,5.13
2023-03-02T02:23:34.847Z,4.98
2023-03-02T02:26:20.543Z,5.03
2023-03-02T02:28:58.164Z,4.92
2023-03-02T02:31:31.310Z,5.06
2023-03-02T02:34:03.968Z,5.09
2023-03-02T02:36:36.328Z,4.80
2023-03-02T02:39:08.205Z,4.88
2023-03-02T02:41:40.995Z,5.07
2023-03-02T02:44:14.572Z,4.81
2023-03-02T02:46:45.378Z,4.86
2023-03-02T02:49:28.183Z,4.79
2023-03-02T02:51:57.092Z,4.90
2023-03-02T02:54:26.710Z,4.73
2023-03-02T02:56:58.740Z,4.93
2023-03-02T02:59:30.725Z,4.97
2023-03-02T03:02:00.079Z,4.95
2023-03-02T03:04:32.014Z,4.83
2023-03-02T03:07:02.500Z,4.81
2023-03-02T03:09:31.750Z,4.78
2023-03-02T03:12:06.007Z,4.74
2023-03-02T03:14:37.384Z,4.93
2023-03-02T03:17:12.794Z,4.78
2023-03-02T03:19:43.257Z,4.75
2023-03-02T03:22:12.992Z,4.77
2023-03-02T03:24:43.634Z,4.84
2023-03-02T03:27:16.725Z,5.01
2023-03-02T03:29:48.556Z,4.83
2023-03-02T03:32:17.331Z,4.84
2023-03-02T03:34:46.712Z,5.08
2023-03-02T03:37:18.033Z,4.86
2023-03-02T03:39:46.605Z,4.81
2023-03-02T03:42:16.729Z,4.47
2023-03-02T03:44:47.573Z,4.70
2023-03-02T03:47:15.702Z,4.64
2023-03-02T03:49:44.049Z,4.60
2023-03-02T03:52:12.500Z,4.64
2023-03-02T03:54:40.771Z,4.62
2023-03-02T03:57:10.745Z,4.63
2023-03-02T03:59:40.696Z,4.50
2023-03-02T04:02:09.057Z,4.49
2023-03-02T04:04:37.634Z,4.47
2023-03-02T04:07:09.529Z,4.42
2023-03-02T04:09:39.523Z,4.29
2023-03-02T04:12:08.820Z,4.33
2023-03-02T04:14:37.975Z,4.11
2023-03-02T04:17:08.768Z,4.22
2023-03-02T04:19:37.491Z,3.86
2023-03-02T04:22:05.668Z,4.11
2023-03-02T04:24:34.048Z,4.18
2023-03-02T04:27:02.311Z,4.01
2023-03-02T04:29:32.475Z,4.09
2023-03-02T04:32:01.052Z,3.99
2023-03-02T04:34:31.074Z,3.90
2023-03-02T04:36:59.362Z,4.10
2023-03-02T04:39:28.471Z,4.10
2023-03-02T04:41:56.991Z,4.15
2023-03-02T04:44:25.505Z,4.20
2023-03-02T04:46:53.681Z,4.25
2023-03-02T04:49:23.070Z,4.09
2023-03-02T04:51:53.513Z,4.28
2023-03-02T04:54:25.755Z,4.02
2023-03-02T04:56:54.954Z,4.16
2023-03-02T04:59:27.060Z,4.07
2023-03-02T05:01:56.987Z,4.12
2023-03-02T05:04:25.739Z,4.05
2023-03-02T05:06:55.717Z,3.87
2023-03-02T05:09:27.495Z,3.95
2023-03-02T05:12:00.687Z,3.74
2023-03-02T05:14:29.738Z,4.01
2023-03-02T05:16:58.590Z,3.93
2023-03-02T05:19:28.297Z,3.87
2023-03-02T05:21:58.490Z,3.78
2023-03-02T05:24:27.583Z,3.97
2023-03-02T05:26:57.231Z,3.85
2023-03-02T05:29:25.749Z,3.91
2023-03-02T05:31:54.929Z,3.83
2023-03-02T05:34:23.448Z,3.77
2023-03-02T05:36:51.634Z,3.77
2023-03-02T05:39:21.329Z,3.77
2023-03-02T05:41:50.102Z,3.77
2023-03-02T05:44:18.410Z,3.74
2023-03-02T05:46:47.837Z,3.93
2023-03-02T05:49:16.366Z,4.02
2023-03-02T05:51:44.547Z,4.01
2023-03-02T05:54:12.801Z,3.96
2023-03-02T05:56:42.488Z,3.83
2023-03-02T05:59:10.677Z,3.74
2023-03-02T06:01:38.920Z,3.68
2023-03-02T06:04:07.759Z,3.84
2023-03-02T06:06:36.729Z,3.63
2023-03-02T06:09:05.494Z,3.99
2023-03-02T06:11:33.992Z,3.86
2023-03-02T06:14:04.461Z,3.93
2023-03-02T06:16:33.987Z,3.72
2023-03-02T06:19:02.676Z,3.90
2023-03-02T06:21:30.749Z,3.75
2023-03-02T06:23:59.600Z,3.80
2023-03-02T06:26:28.096Z,3.78
2023-03-02T06:28:56.684Z,3.76
2023-03-02T06:31:26.714Z,3.83
2023-03-02T06:33:54.786Z,3.76
2023-03-02T06:36:23.103Z,3.71
2023-03-02T06:38:51.677Z,3.73
2023-03-02T06:41:20.423Z,3.63
2023-03-02T06:43:49.239Z,3.59
2023-03-02T06:46:17.824Z,3.62
2023-03-02T06:48:47.641Z,3.81
2023-03-02T06:51:15.928Z,3.75
2023-03-02T06:53:44.179Z,3.76
2023-03-02T06:56:12.692Z,3.79
2023-03-02T06:58:41.400Z,3.78
2023-03-02T07:01:10.186Z,3.92
2023-03-02T07:03:38.748Z,3.88
2023-03-02T07:06:09.109Z,3.93
2023-03-02T07:08:37.598Z,3.84
2023-03-02T07:11:09.245Z,3.98
2023-03-02T07:13:38.035Z,3.87
2023-03-02T07:16:10.670Z,3.97
2023-03-02T07:18:38.846Z,4.04
2023-03-02T07:21:08.876Z,4.19
2023-03-02T07:23:37.203Z,4.18
2023-03-02T07:26:08.602Z,4.27
2023-03-02T07:28:39.584Z,4.38
2023-03-02T07:31:08.828Z,4.52
2023-03-02T07:33:37.501Z,4.45
2023-03-02T07:36:06.912Z,4.51
2023-03-02T07:38:37.645Z,4.60
2023-03-02T07:41:08.741Z,4.59
2023-03-02T07:43:37.490Z,4.53
2023-03-02T07:46:06.540Z,4.65
2023-03-02T07:48:35.588Z,4.69
2023-03-02T07:51:07.030Z,4.89
2023-03-02T07:53:36.858Z,4.97
2023-03-02T07:56:08.670Z,4.94
2023-03-02T07:58:37.091Z,5.07
2023-03-02T08:01:06.128Z,4.99
2023-03-02T08:03:34.901Z,5.27
2023-03-02T08:06:06.578Z,5.38
2023-03-02T08:08:35.270Z,5.51
2023-03-02T08:11:09.347Z,5.37
2023-03-02T08:13:37.858Z,5.60
2023-03-02T08:16:08.126Z,5.61
2023-03-02T08:18:37.466Z,5.61
2023-03-02T08:21:06.794Z,5.79
2023-03-02T08:23:35.210Z,5.74
2023-03-02T08:26:03.609Z,5.76
2023-03-02T08:28:33.268Z,5.69
2023-03-02T08:31:02.851Z,5.76
2023-03-02T08:33:31.460Z,5.75
2023-03-02T08:36:02.199Z,5.71
2023-03-02T08:38:30.903Z,5.72
2023-03-02T08:40:59.269Z,5.74
2023-03-02T08:43:28.207Z,5.80
2023-03-02T08:45:58.758Z,5.90
2023-03-02T08:48:28.636Z,5.97
2023-03-02T08:50:59.250Z,6.01
2023-03-02T08:53:29.182Z,6.17
2023-03-02T08:55:58.236Z,6.32
2023-03-02T08:58:28.423Z,6.22
2023-03-02T09:00:58.866Z,6.19
2023-03-02T09:03:27.298Z,6.35
2023-03-02T09:05:55.704Z,6.41
2023-03-02T09:08:24.139Z,6.43
2023-03-02T09:10:52.409Z,6.60
2023-03-02T09:13:20.674Z,6.44
2023-03-02T09:15:51.590Z,6.80
2023-03-02T09:18:21.198Z,6.78
2023-03-02T09:20:51.455Z,7.04
2023-03-02T09:23:20.271Z,7.14
2023-03-02T09:25:49.280Z,7.15
2023-03-02T09:28:18.448Z,7.15
2023-03-02T09:30:50.683Z,7.24
2023-03-02T09:33:20.869Z,7.18
2023-03-02T09:35:51.077Z,7.36
2023-03-02T09:38:20.708Z,7.38
2023-03-02T09:41:10.541Z,7.52
2023-03-02T09:43:50.840Z,7.53
2023-03-02T09:46:24.404Z,7.93
2023-03-02T09:49:22.564Z,8.04
2023-03-02T09:52:07.256Z,8.39
2023-03-02T09:54:38.143Z,8.54
2023-03-02T09:57:21.735Z,8.51
2023-03-02T09:59:55.877Z,8.59
2023-03-02T10:02:28.673Z,8.79
2023-03-02T10:05:02.387Z,8.61
2023-03-02T10:07:32.247Z,8.75
2023-03-02T10:10:06.052Z,8.94
2023-03-02T10:12:53.173Z,9.02
2023-03-02T10:15:27.438Z,8.85
2023-03-02T10:18:04.146Z,8.75
2023-03-02T10:20:38.147Z,8.93
2023-03-02T10:23:19.929Z,8.98
2023-03-02T10:25:52.355Z,9.02
2023-03-02T10:28:22.564Z,9.13
2023-03-02T10:30:55.703Z,9.12
2023-03-02T10:33:24.687Z,9.19
2023-03-02T10:35:55.211Z,9.14
2023-03-02T10:38:27.567Z,9.08
2023-03-02T10:41:00.725Z,9.04
2023-03-02T10:43:35.014Z,9.11
2023-03-02T10:46:04.939Z,9.24
2023-03-02T10:48:40.922Z,9.18
2023-03-02T10:51:23.726Z,9.15
2023-03-02T10:53:52.466Z,9.04
2023-03-02T10:56:22.800Z,9.56
2023-03-02T10:58:50.898Z,9.63
2023-03-02T11:01:24.988Z,9.58
2023-03-02T11:04:08.637Z,9.81
2023-03-02T11:06:42.412Z,9.73
2023-03-02T11:12:05.090Z,9.84
2023-03-02T11:14:37.873Z,9.85
2023-03-02T11:17:38.477Z,10.05
2023-03-02T11:20:31.646Z,9.99
2023-03-02T11:23:20.388Z,9.94
2023-03-02T11:26:04.127Z,10.08
2023-03-02T11:28:56.242Z,10.29
2023-03-02T11:31:44.940Z,10.20
2023-03-02T11:34:41.824Z,10.17
2023-03-02T11:37:25.741Z,10.07
2023-03-02T11:40:07.515Z,10.38
2023-03-02T11:42:37.951Z,10.35
2023-03-02T11:45:21.798Z,10.43
2023-03-02T11:48:05.125Z,10.34
2023-03-02T11:50:41.323Z,9.82
2023-03-02T11:53:20.876Z,9.93
2023-03-02T11:55:51.998Z,10.29
2023-03-02T11:58:22.665Z,10.00
2023-03-02T12:00:54.740Z,10.30
2023-03-02T12:03:40.105Z,10.54
2023-03-02T12:06:26.024Z,10.74
2023-03-02T12:08:57.367Z,10.75
2023-03-02T12:11:38.395Z,10.73
2023-03-02T12:14:26.995Z,10.12
2023-03-02T12:17:22.421Z,10.44
2023-03-02T12:19:54.585Z,10.63
2023-03-02T12:22:31.057Z,10.54
2023-03-02T12:25:06.519Z,10.68
2023-03-02T12:27:42.336Z,10.65
2023-03-02T12:30:24.822Z,10.86
2023-03-02T12:33:20.082Z,10.89
2023-03-02T12:36:13.413Z,10.83
2023-03-02T12:38:56.798Z,10.62
2023-03-02T12:41:53.043Z,10.26
2023-03-02T12:44:39.953Z,10.08
2023-03-02T12:47:15.980Z,10.43
2023-03-02T12:50:01.416Z,10.17
2023-03-02T12:52:32.363Z,10.13
2023-03-02T12:55:03.615Z,10.00
2023-03-02T12:57:33.114Z,10.07
2023-03-02T13:00:06.141Z,10.05
2023-03-02T13:02:38.904Z,9.85
2023-03-02T13:05:09.258Z,10.16
2023-03-02T13:07:41.925Z,10.31
2023-03-02T13:10:29.250Z,10.16
2023-03-02T13:13:04.120Z,10.07
2023-03-02T13:15:39.131Z,10.12
2023-03-02T13:18:07.588Z,10.15
2023-03-02T13:20:41.280Z,9.89
2023-03-02T13:23:14.520Z,9.75
2023-03-02T13:26:03.252Z,9.95
2023-03-02T13:28:40.869Z,10.05
2023-03-02T13:31:26.969Z,9.94
2023-03-02T13:33:57.039Z,9.94
2023-03-02T13:36:29.050Z,9.78
2023-03-02T13:39:00.305Z,9.64
2023-03-02T13:41:36.928Z,9.72
2023-03-02T13:44:19.919Z,9.34
2023-03-02T13:46:51.789Z,9.76
2023-03-02T13:49:30.770Z,9.61
2023-03-02T13:52:07.739Z,9.72
2023-03-02T13:54:41.290Z,9.96
2023-03-02T13:57:26.496Z,9.89
2023-03-02T13:59:55.043Z,9.87
2023-03-02T14:02:28.545Z,9.84
2023-03-02T14:04:58.330Z,9.96
2023-03-02T14:07:26.882Z,9.88
2023-03-02T14:09:58.431Z,9.78
2023-03-02T14:12:29.325Z,9.82
2023-03-02T14:15:04.754Z,9.56
2023-03-02T14:17:34.736Z,9.67
2023-03-02T14:20:04.835Z,9.74
2023-03-02T14:22:39.069Z,9.80
2023-03-02T14:25:11.056Z,9.79
2023-03-02T14:27:49.486Z,9.67
2023-03-02T14:30:20.340Z,9.70
2023-03-02T14:32:51.231Z,9.82
2023-03-02T14:35:21.965Z,9.82
2023-03-02T14:37:56.897Z,9.86
2023-03-02T14:40:28.897Z,9.81
2023-03-02T14:43:01.075Z,9.67
2023-03-02T14:45:32.086Z,9.74
2023-03-02T14:48:02.183Z,9.77
2023-03-02T14:50:30.625Z,9.74
2023-03-02T14:52:59.636Z,9.79
2023-03-02T14:55:32.595Z,9.49
2023-03-02T14:58:05.391Z,9.36
2023-03-02T15:00:37.202Z,9.13
2023-03-02T15:03:08.994Z,8.80
2023-03-02T15:05:38.565Z,9.52
2023-03-02T15:08:08.116Z,9.53
2023-03-02T15:10:38.152Z,9.19
2023-03-02T15:13:09.715Z,9.22
2023-03-02T15:15:39.534Z,9.31
2023-03-02T15:18:12.272Z,9.35
2023-03-02T15:20:41.457Z,9.45
2023-03-02T15:23:15.220Z,9.21
2023-03-02T15:25:47.214Z,9.63
2023-03-02T15:28:18.184Z,9.44
2023-03-02T15:30:47.901Z,9.52
2023-03-02T15:33:18.111Z,9.50
2023-03-02T15:35:56.744Z,9.34
2023-03-02T15:38:31.110Z,9.23
2023-03-02T15:41:07.567Z,9.40
2023-03-02T15:43:38.344Z,9.18
2023-03-02T15:46:12.499Z,9.24
2023-03-02T15:48:52.497Z,9.38
2023-03-02T15:51:22.261Z,9.40
2023-03-02T15:53:51.189Z,9.31
2023-03-02T15:56:19.870Z,9.33
2023-03-02T15:58:54.876Z,9.22
2023-03-02T16:01:24.076Z,8.97
2023-03-02T16:03:54.302Z,8.96
2023-03-02T16:06:24.479Z,9.13
2023-03-02T16:08:53.135Z,9.13
2023-03-02T16:11:23.411Z,9.01
2023-03-02T16:13:54.929Z,8.99
2023-03-02T16:16:30.153Z,8.78
2023-03-02T16:19:04.122Z,8.82
2023-03-02T16:21:32.538Z,8.96
2023-03-02T16:24:05.108Z,8.87
2023-03-02T16:26:38.104Z,8.81
2023-03-02T16:29:16.944Z,8.76
2023-03-02T16:31:47.793Z,9.09
2023-03-02T16:34:18.605Z,9.02
2023-03-02T16:36:50.156Z,9.00
2023-03-02T16:39:24.911Z,8.80
2023-03-02T16:41:54.732Z,8.65
2023-03-02T16:44:26.224Z,8.94
2023-03-02T16:47:01.227Z,8.91
2023-03-02T16:49:38.160Z,8.94
2023-03-02T16:52:09.540Z,8.94
2023-03-02T16:54:37.679Z,8.34
2023-03-02T16:57:12.340Z,8.97
2023-03-02T16:59:41.796Z,8.70
2023-03-02T17:02:14.764Z,9.07
2023-03-02T17:05:01.844Z,9.05
2023-03-02T17:07:33.350Z,8.62
2023-03-02T17:10:21.851Z,8.81
2023-03-02T17:12:59.139Z,8.78
2023-03-02T17:15:29.033Z,8.69
2023-03-02T17:18:01.289Z,8.63
2023-03-02T17:20:30.918Z,8.65
2023-03-02T17:23:09.260Z,8.58
2023-03-02T17:25:38.147Z,8.57
2023-03-02T17:28:07.501Z,8.72
2023-03-02T17:30:36.165Z,8.62
2023-03-02T17:33:08.095Z,7.78
2023-03-02T17:35:39.973Z,8.23
2023-03-02T17:38:09.971Z,8.26
2023-03-02T17:40:38.522Z,8.15
2023-03-02T17:43:09.749Z,8.17
2023-03-02T17:45:38.642Z,8.23
2023-03-02T17:48:19.123Z,7.75
2023-03-02T17:51:01.027Z,7.74
2023-03-02T17:53:30.938Z,8.13
2023-03-02T17:56:03.822Z,8.13
2023-03-02T17:58:44.705Z,7.92
2023-03-02T18:01:27.261Z,7.50
2023-03-02T18:03:58.483Z,7.41
2023-03-02T18:07:01.697Z,7.80
2023-03-02T18:09:47.670Z,6.97
2023-03-02T18:12:46.451Z,6.95
2023-03-02T18:15:41.578Z,7.35
2023-03-02T18:18:16.063Z,6.86
2023-03-02T18:20:58.556Z,7.69
2023-03-02T18:23:31.375Z,7.66
2023-03-02T18:26:03.125Z,7.30
2023-03-02T18:28:33.114Z,7.58
2023-03-02T18:31:11.191Z,7.45
2023-03-02T18:33:40.061Z,7.37
2023-03-02T18:36:09.059Z,7.43
2023-03-02T18:38:50.457Z,7.44
2023-03-02T18:41:20.838Z,7.32
2023-03-02T18:43:49.232Z,7.41
2023-03-02T18:46:23.935Z,7.40
2023-03-02T18:48:54.057Z,7.33
2023-03-02T18:51:26.924Z,7.39
2023-03-02T18:53:57.307Z,7.48
2023-03-02T18:56:27.832Z,7.46
2023-03-02T18:58:56.714Z,7.39
2023-03-02T19:01:36.168Z,7.23
2023-03-02T19:04:09.326Z,6.29
2023-03-02T19:06:42.834Z,7.10
2023-03-02T19:09:16.425Z,7.28
2023-03-02T19:11:46.457Z,7.45
2023-03-02T19:14:15.735Z,7.32
2023-03-02T19:16:45.698Z,7.42
2023-03-02T19:19:17.137Z,7.39
2023-03-02T19:21:48.441Z,7.20
2023-03-02T19:24:19.440Z,7.13
2023-03-02T19:26:47.596Z,7.02
2023-03-02T19:29:16.788Z,7.17
2023-03-02T19:31:47.948Z,7.19
2023-03-02T19:34:19.122Z,7.29
2023-03-02T19:36:49.073Z,7.51
2023-03-02T19:39:28.172Z,7.33
2023-03-02T19:42:00.156Z,7.52
2023-03-02T19:44:28.435Z,7.23
2023-03-02T19:46:57.222Z,7.29
2023-03-02T19:49:25.984Z,7.25
2023-03-02T19:51:59.235Z,7.39
2023-03-02T19:54:34.950Z,7.43
2023-03-02T19:57:08.386Z,7.36
2023-03-02T19:59:41.162Z,7.37
2023-03-02T20:02:15.623Z,7.46
2023-03-02T20:04:45.815Z,7.34
2023-03-02T20:07:14.194Z,7.08
2023-03-02T20:09:48.926Z,7.41
2023-03-02T20:12:17.444Z,7.42
2023-03-02T20:14:49.342Z,7.49
2023-03-02T20:17:19.661Z,7.54
2023-03-02T20:19:49.412Z,7.69
2023-03-02T20:22:22.354Z,7.73
2023-03-02T20:24:55.121Z,7.67
2023-03-02T20:27:24.288Z,7.50
2023-03-02T20:29:52.816Z,7.28
2023-03-02T20:32:21.809Z,7.09
2023-03-02T20:34:50.485Z,7.01
2023-03-02T20:37:19.157Z,6.98
2023-03-02T20:39:48.034Z,6.96
2023-03-02T20:42:18.170Z,6.87
2023-03-02T20:44:53.477Z,6.76
2023-03-02T20:47:21.957Z,6.92
2023-03-02T20:49:50.461Z,6.89
2023-03-02T20:52:19.818Z,7.01
2023-03-02T20:54:48.688Z,6.39
2023-03-02T20:57:20.342Z,7.00
2023-03-02T20:59:48.979Z,6.94
2023-03-02T21:02:20.404Z,6.71
2023-03-02T21:04:49.368Z,6.45
2023-03-02T21:07:20.577Z,6.39
2023-03-02T21:09:51.290Z,6.39
2023-03-02T21:12:23.361Z,6.41
2023-03-02T21:14:52.152Z,6.40
2023-03-02T21:17:21.089Z,6.51
2023-03-02T21:19:49.218Z,6.40
2023-03-02T21:22:20.307Z,6.33
2023-03-02T21:24:48.564Z,6.31
2023-03-02T21:27:16.653Z,6.27
2023-03-02T21:29:46.343Z,6.25
2023-03-02T21:32:15.084Z,6.21
2023-03-02T21:34:45.086Z,6.23
2023-03-02T21:37:14.018Z,6.13
2023-03-02T21:39:42.601Z,6.08
2023-03-02T21:42:10.765Z,6.00
2023-03-02T21:44:41.527Z,5.93
2023-03-02T21:47:14.845Z,5.86
2023-03-02T21:49:43.242Z,5.85
2023-03-02T21:52:11.339Z,5.80
2023-03-02T21:54:39.766Z,5.82
2023-03-02T21:57:09.849Z,5.74
2023-03-02T21:59:38.485Z,5.59
2023-03-02T22:02:06.716Z,5.53
2023-03-02T22:04:36.800Z,5.51
2023-03-02T22:07:08.556Z,5.46
2023-03-02T22:09:37.015Z,5.51
2023-03-02T22:12:13.105Z,5.47
2023-03-02T22:14:41.503Z,5.46
2023-03-02T22:17:18.527Z,5.64
2023-03-02T22:19:49.202Z,5.48
2023-03-02T22:22:19.336Z,5.65
2023-03-02T22:24:50.076Z,5.68
2023-03-02T22:27:27.719Z,5.67
2023-03-02T22:30:01.010Z,5.57
2023-03-02T22:32:31.261Z,5.70
2023-03-02T22:35:04.209Z,5.63
2023-03-02T22:37:36.205Z,5.54
2023-03-02T22:40:18.574Z,5.44
2023-03-02T22:42:46.824Z,5.48
2023-03-02T22:45:17.638Z,5.42
2023-03-02T22:47:49.266Z,5.37
2023-03-02T22:50:24.079Z,5.31
2023-03-02T22:52:53.312Z,5.29
2023-03-02T22:55:35.923Z,5.18
2023-03-02T22:58:27.157Z,5.21
2023-03-02T23:00:56.358Z,5.33
2023-03-02T23:03:28.069Z,5.44
2023-03-02T23:06:01.010Z,5.65
2023-03-02T23:08:30.952Z,5.73
2023-03-02T23:11:00.178Z,5.78
2023-03-02T23:13:41.119Z,5.70
2023-03-02T23:16:16.450Z,5.52
2023-03-02T23:18:44.985Z,5.61
2023-03-02T23:21:23.522Z,5.64
2023-03-02T23:23:52.137Z,5.89
2023-03-02T23:26:21.226Z,5.91
2023-03-02T23:28:51.734Z,5.74
2023-03-02T23:31:21.453Z,5.56
2023-03-02T23:33:49.961Z,5.71
2023-03-02T23:36:20.999Z,5.76
2023-03-02T23:38:51.505Z,5.71
2023-03-02T23:41:20.032Z,5.63
2023-03-02T23:43:48.775Z,5.72
2023-03-02T23:46:17.445Z,5.54
2023-03-02T23:48:45.875Z,5.46
2023-03-02T23:51:13.970Z,5.66
2023-03-02T23:53:42.578Z,5.53
2023-03-02T23:56:12.868Z,5.65
2023-03-02T23:58:42.015Z,5.76
